Time,TemperatureF,DewpointF,PressureIn,WindDirection,WindDirectionDegrees,WindSpeedMPH,WindSpeedGustMPH,Humidity,HourlyPrecipIn,Conditions,Clouds,dailyrainin,SoftwareType,DateUTC
2013-03-21 00:00:00,13.0,3.3,30.08,WNW,293,4.9,4.9,65,0.00,,,0.00,WUHU216HW,2013-03-21 05:00:00,
2013-03-21 00:05:00,13.0,3.3,30.08,WNW,293,3.4,4.9,65,0.00,,,0.00,WUHU216HW,2013-03-21 05:05:00,
2013-03-21 00:10:00,13.0,3.3,30.08,WNW,293,3.4,4.9,65,0.00,,,0.00,WUHU216HW,2013-03-21 05:10:00,
2013-03-21 00:30:00,12.2,3.0,30.09,WNW,293,2.7,2.7,66,0.00,,,0.00,WUHU216HW,2013-03-21 05:30:00,
2013-03-21 00:31:00,12.2,3.0,30.09,WNW,293,2.7,2.7,66,0.00,,,0.00,WUHU216HW,2013-03-21 05:31:00,
2013-03-21 00:35:00,12.2,3.0,30.09,WNW,293,2.7,2.7,66,0.00,,,0.00,WUHU216HW,2013-03-21 05:35:00,
2013-03-21 00:36:00,12.2,3.0,30.09,WNW,293,2.7,2.7,66,0.00,,,0.00,WUHU216HW,2013-03-21 05:36:00,
2013-03-21 01:00:00,11.0,2.1,30.09,West,270,2.5,2.5,67,0.00,,,0.00,WUHU216HW,2013-03-21 06:00:00,
2013-03-21 01:05:00,11.0,2.1,30.09,West,270,3.4,3.4,67,0.00,,,0.00,WUHU216HW,2013-03-21 06:05:00,
2013-03-21 01:10:00,11.0,2.1,30.09,West,270,3.4,3.4,67,0.00,,,0.00,WUHU216HW,2013-03-21 06:10:00,
2013-03-21 01:30:00,9.5,1.4,30.08,NW,315,2.2,2.2,69,0.00,,,0.00,WUHU216HW,2013-03-21 06:30:00,
2013-03-21 01:35:00,9.5,1.4,30.08,NW,315,2.7,2.7,69,0.00,,,0.00,WUHU216HW,2013-03-21 06:35:00,
2013-03-21 01:36:00,9.5,1.4,30.08,NW,315,2.7,2.7,69,0.00,,,0.00,WUHU216HW,2013-03-21 06:36:00,
2013-03-21 01:40:00,9.5,1.4,30.08,NW,315,2.7,2.7,69,0.00,,,0.00,WUHU216HW,2013-03-21 06:40:00,
2013-03-21 02:00:00,9.0,1.3,30.08,WNW,293,2.2,2.2,70,0.00,,,0.00,WUHU216HW,2013-03-21 07:00:00,
2013-03-21 02:05:00,9.0,1.3,30.08,NNW,338,2.7,2.7,70,0.00,,,0.00,WUHU216HW,2013-03-21 07:05:00,
2013-03-21 02:10:00,9.0,1.3,30.08,NNW,338,2.7,2.7,70,0.00,,,0.00,WUHU216HW,2013-03-21 07:10:00,
2013-03-21 02:30:00,7.6,-0.2,30.07,NW,315,0.0,0.0,70,0.00,,,0.00,WUHU216HW,2013-03-21 07:30:00,
2013-03-21 02:35:00,7.6,-0.2,30.07,NW,315,0.0,0.0,70,0.00,,,0.00,WUHU216HW,2013-03-21 07:35:00,
2013-03-21 02:36:00,7.6,-0.2,30.07,NW,315,0.0,0.0,70,0.00,,,0.00,WUHU216HW,2013-03-21 07:36:00,
2013-03-21 02:40:00,7.6,-0.2,30.07,NW,315,0.0,0.0,70,0.00,,,0.00,WUHU216HW,2013-03-21 07:40:00,
2013-03-21 03:00:00,7.2,0.4,30.07,NW,315,0.4,0.4,73,0.00,,,0.00,WUHU216HW,2013-03-21 08:00:00,
2013-03-21 03:05:00,7.2,0.4,30.07,NW,315,0.2,0.4,73,0.00,,,0.00,WUHU216HW,2013-03-21 08:05:00,
2013-03-21 03:10:00,7.2,0.4,30.07,NW,315,0.2,0.2,73,0.00,,,0.00,WUHU216HW,2013-03-21 08:10:00,
2013-03-21 16:00:00,27.7,10.5,30.01,NNW,338,5.4,5.4,48,0.00,,,0.00,WUHU216HW,2013-03-21 21:00:00,
2013-03-21 16:05:00,27.7,10.5,30.01,NNW,338,4.9,5.4,48,0.00,,,0.01,WUHU216HW,2013-03-21 21:05:00,
2013-03-21 16:10:00,28.3,10.5,30.01,NNW,345,5.1,6.7,47,0.00,,,0.01,WUHU216HW,2013-03-21 21:10:00,
2013-03-21 16:15:00,29.0,10.7,30.01,NE,45,1.1,7.6,46,0.00,,,0.01,WUHU216HW,2013-03-21 21:15:00,
2013-03-21 16:20:00,29.9,11.0,30.01,NW,320,3.1,7.6,45,0.01,,,0.02,WUHU216HW,2013-03-21 21:20:00,
2013-03-21 16:25:00,29.7,10.9,30.01,North,0,3.6,5.4,45,0.01,,,0.02,WUHU216HW,2013-03-21 21:25:00,
2013-03-21 16:27:00,29.7,11.3,30.01,NW,315,3.8,5.4,46,0.01,,,0.02,WUHU216HW,2013-03-21 21:27:00,
2013-03-21 16:30:00,29.2,10.4,30.01,NW,308,4.3,6.3,45,0.01,,,0.02,WUHU216HW,2013-03-21 21:30:00,
2013-03-21 16:32:00,29.0,10.7,30.01,North,0,4.7,6.3,46,0.01,,,0.02,WUHU216HW,2013-03-21 21:32:00,
2013-03-21 16:35:00,28.8,10.1,30.01,North,0,3.4,6.3,45,0.01,,,0.02,WUHU216HW,2013-03-21 21:35:00,
2013-03-21 16:36:00,28.8,10.5,30.01,North,0,5.6,6.3,46,0.01,,,0.02,WUHU216HW,2013-03-21 21:36:00,
2013-03-21 16:37:00,28.6,10.4,30.01,North,0,5.4,6.3,46,0.01,,,0.02,WUHU216HW,2013-03-21 21:37:00,
2013-03-21 16:40:00,28.4,10.3,30.01,North,1,7.1,9.4,46,0.01,,,0.02,WUHU216HW,2013-03-21 21:40:00,
2013-03-21 16:41:00,28.4,10.7,30.01,North,0,6.0,9.4,47,0.01,,,0.02,WUHU216HW,2013-03-21 21:41:00,
2013-03-21 16:42:00,28.4,10.3,30.01,NNW,344,4.7,9.4,46,0.01,,,0.02,WUHU216HW,2013-03-21 21:42:00,
2013-03-21 16:45:00,28.8,10.5,30.00,North,351,3.7,9.4,46,0.01,,,0.02,WUHU216HW,2013-03-21 21:45:00,
2013-03-21 16:46:00,28.8,10.5,30.00,North,0,2.2,2.2,46,0.01,,,0.02,WUHU216HW,2013-03-21 21:46:00,
2013-03-21 16:47:00,28.8,10.5,30.00,North,357,3.6,9.4,46,0.01,,,0.02,WUHU216HW,2013-03-21 21:47:00,
2013-03-21 16:52:00,28.8,10.5,30.00,North,0,2.2,5.6,46,0.01,,,0.02,WUHU216HW,2013-03-21 21:52:00,
2013-03-21 16:53:00,28.8,10.5,30.00,North,0,2.2,5.6,46,0.01,,,0.02,WUHU216HW,2013-03-21 21:53:00,
2013-03-21 17:00:00,29.2,10.9,30.01,NNW,338,4.7,4.7,46,0.01,,,0.02,WUHU216HW,2013-03-21 22:00:00,
2013-03-21 17:05:00,29.0,10.7,30.01,NNW,338,4.7,4.7,46,0.01,,,0.02,WUHU216HW,2013-03-21 22:05:00,
2013-03-21 17:30:00,29.3,10.0,30.00,WNW,293,6.3,6.3,44,0.00,,,0.02,WUHU216HW,2013-03-21 22:30:00,
2013-03-21 17:35:00,29.3,10.0,30.00,NW,315,6.7,6.7,44,0.00,,,0.02,WUHU216HW,2013-03-21 22:35:00,
2013-03-21 17:40:00,29.3,10.0,30.00,NW,315,6.7,6.7,44,0.00,,,0.02,WUHU216HW,2013-03-21 22:40:00,
2013-03-21 18:00:00,30.6,10.6,30.01,NW,315,3.1,3.1,43,0.00,,,0.02,WUHU216HW,2013-03-21 23:00:00,
2013-03-21 18:05:00,30.6,10.6,30.01,NNW,338,2.0,3.1,43,0.00,,,0.02,WUHU216HW,2013-03-21 23:05:00,
2013-03-21 18:10:00,30.6,10.6,30.01,NNW,338,2.0,2.0,43,0.00,,,0.02,WUHU216HW,2013-03-21 23:10:00,
2013-03-21 18:30:00,29.9,10.5,30.01,NNW,338,2.0,2.0,44,0.00,,,0.02,WUHU216HW,2013-03-21 23:30:00,
2013-03-21 18:35:00,29.9,10.5,30.01,North,0,1.8,2.0,44,0.00,,,0.02,WUHU216HW,2013-03-21 23:35:00,
2013-03-21 18:40:00,29.9,10.5,30.01,North,0,1.8,2.0,44,0.00,,,0.02,WUHU216HW,2013-03-21 23:40:00,
2013-03-21 19:00:00,28.6,10.9,30.01,NW,315,2.5,2.5,47,0.00,,,0.02,WUHU216HW,2013-03-22 00:00:00,
2013-03-21 19:05:00,28.6,10.9,30.01,WNW,293,2.5,2.5,47,0.00,,,0.02,WUHU216HW,2013-03-22 00:05:00,
2013-03-21 19:10:00,28.6,10.9,30.01,WNW,293,2.5,2.5,47,0.00,,,0.02,WUHU216HW,2013-03-22 00:10:00,
2013-03-21 19:30:00,25.6,9.9,30.01,WNW,293,2.5,2.5,51,0.00,,,0.02,WUHU216HW,2013-03-22 00:30:00,
2013-03-21 19:35:00,25.6,9.9,30.01,WNW,293,2.5,2.5,51,0.00,,,0.02,WUHU216HW,2013-03-22 00:35:00,
2013-03-21 19:37:00,25.6,9.9,30.01,WNW,293,2.5,2.5,51,0.00,,,0.02,WUHU216HW,2013-03-22 00:37:00,
2013-03-21 20:00:00,23.8,10.3,30.01,NW,315,1.8,1.8,56,0.00,,,0.02,WUHU216HW,2013-03-22 01:00:00,
2013-03-21 20:05:00,23.8,10.3,30.01,NW,315,1.8,1.8,56,0.00,,,0.02,WUHU216HW,2013-03-22 01:05:00,
2013-03-21 20:10:00,23.8,10.3,30.01,NW,315,1.8,1.8,56,0.00,,,0.02,WUHU216HW,2013-03-22 01:10:00,
2013-03-21 20:30:00,22.3,10.1,30.01,West,270,1.8,1.8,59,0.00,,,0.02,WUHU216HW,2013-03-22 01:30:00,
2013-03-21 20:35:00,22.3,10.1,30.01,West,270,1.8,1.8,59,0.00,,,0.02,WUHU216HW,2013-03-22 01:35:00,
2013-03-21 20:40:00,22.3,10.1,30.01,West,270,1.8,1.8,59,0.00,,,0.02,WUHU216HW,2013-03-22 01:40:00,
2013-03-21 21:00:00,21.1,9.7,30.01,West,270,1.8,1.8,61,0.00,,,0.02,WUHU216HW,2013-03-22 02:00:00,
2013-03-21 21:05:00,21.1,9.7,30.01,WNW,293,1.3,1.8,61,0.00,,,0.02,WUHU216HW,2013-03-22 02:05:00,
2013-03-21 21:10:00,21.1,9.7,30.01,WNW,293,1.3,1.3,61,0.00,,,0.02,WUHU216HW,2013-03-22 02:10:00,
2013-03-21 21:30:00,19.8,9.1,30.02,SW,225,1.6,1.6,63,0.00,,,0.02,WUHU216HW,2013-03-22 02:30:00,
2013-03-21 21:35:00,19.6,8.9,30.02,SSW,203,1.3,1.6,63,0.00,,,0.02,WUHU216HW,2013-03-22 02:35:00,
2013-03-21 21:36:00,19.6,8.9,30.02,SSW,203,1.3,1.6,63,0.00,,,0.02,WUHU216HW,2013-03-22 02:36:00,
2013-03-21 21:40:00,19.6,8.9,30.02,SSW,203,1.3,1.3,63,0.00,,,0.02,WUHU216HW,2013-03-22 02:40:00,
2013-03-21 22:00:00,18.5,8.6,30.02,SSW,203,1.3,1.3,65,0.00,,,0.02,WUHU216HW,2013-03-22 03:00:00,
2013-03-21 22:05:00,18.4,8.5,30.02,SW,225,1.6,1.6,65,0.00,,,0.02,WUHU216HW,2013-03-22 03:05:00,
2013-03-21 22:06:00,18.4,8.5,30.02,SW,225,1.6,1.6,65,0.00,,,0.02,WUHU216HW,2013-03-22 03:06:00,
2013-03-21 22:10:00,18.4,8.5,30.02,SW,225,1.6,1.6,65,0.00,,,0.02,WUHU216HW,2013-03-22 03:10:00,
2013-03-21 22:30:00,18.0,8.5,30.03,SW,225,1.8,1.8,66,0.00,,,0.02,WUHU216HW,2013-03-22 03:30:00,
2013-03-21 22:35:00,18.0,8.5,30.03,SW,225,0.9,1.8,66,0.00,,,0.02,WUHU216HW,2013-03-22 03:35:00,
2013-03-21 22:40:00,18.0,8.5,30.03,SW,225,0.9,0.9,66,0.00,,,0.02,WUHU216HW,2013-03-22 03:40:00,
2013-03-21 23:00:00,17.5,8.6,30.03,WSW,248,1.8,1.8,68,0.00,,,0.02,WUHU216HW,2013-03-22 04:00:00,
2013-03-21 23:05:00,17.3,8.5,30.03,SW,225,1.3,1.8,68,0.00,,,0.02,WUHU216HW,2013-03-22 04:05:00,
2013-03-21 23:06:00,17.3,8.5,30.03,SW,225,1.3,1.8,68,0.00,,,0.02,WUHU216HW,2013-03-22 04:06:00,
2013-03-21 23:30:00,16.2,7.7,30.04,SW,225,2.5,2.5,69,0.00,,,0.02,WUHU216HW,2013-03-22 04:30:00,
2013-03-21 23:35:00,16.2,7.7,30.04,SW,225,2.2,2.5,69,0.00,,,0.02,WUHU216HW,2013-03-22 04:35:00,
2013-03-21 23:40:00,16.2,7.7,30.04,SW,225,2.2,2.2,69,0.00,,,0.02,WUHU216HW,2013-03-22 04:40:00,